sensor_id;sensor_type;location;lat;lon;timestamp;P1;durP1;ratioP1;P2;durP2;ratioP2
9536;SDS011;4807;48.024;11.726;2022-10-23T00:02:28;3.77;;;1.07;;
9536;SDS011;4807;48.024;11.726;2022-10-23T00:05:37;1.40;;;1.30;;
9536;SDS011;4807;48.024;11.726;2022-10-23T00:08:47;1.23;;;1.13;;
9536;SDS011;4807;48.024;11.726;2022-10-23T00:11:58;1.73;;;1.10;;
9536;SDS011;4807;48.024;11.726;2022-10-23T00:15:07;1.07;;;1.07;;
9536;SDS011;4807;48.024;11.726;2022-10-23T00:18:16;1.33;;;1.23;;
9536;SDS011;4807;48.024;11.726;2022-10-23T00:21:25;2.50;;;1.10;;
9536;SDS011;4807;48.024;11.726;2022-10-23T00:24:34;2.40;;;1.37;;
9536;SDS011;4807;48.024;11.726;2022-10-23T00:27:43;2.00;;;0.73;;
9536;SDS011;4807;48.024;11.726;2022-10-23T00:30:52;0.87;;;0.87;;
9536;SDS011;4807;48.024;11.726;2022-10-23T00:34:01;1.80;;;1.00;;
9536;SDS011;4807;48.024;11.726;2022-10-23T00:37:13;1.67;;;1.30;;
9536;SDS011;4807;48.024;11.726;2022-10-23T00:40:23;1.70;;;1.50;;
9536;SDS011;4807;48.024;11.726;2022-10-23T00:43:33;1.10;;;1.00;;
9536;SDS011;4807;48.024;11.726;2022-10-23T00:47:00;1.70;;;0.80;;
9536;SDS011;4807;48.024;11.726;2022-10-23T00:50:10;1.90;;;0.80;;
9536;SDS011;4807;48.024;11.726;2022-10-23T00:53:18;1.50;;;1.40;;
9536;SDS011;4807;48.024;11.726;2022-10-23T00:56:29;2.10;;;1.10;;
9536;SDS011;4807;48.024;11.726;2022-10-23T00:59:44;1.73;;;0.90;;
9536;SDS011;4807;48.024;11.726;2022-10-23T01:02:53;1.70;;;0.90;;
9536;SDS011;4807;48.024;11.726;2022-10-23T01:06:04;0.73;;;0.73;;
9536;SDS011;4807;48.024;11.726;2022-10-23T01:09:24;4.63;;;0.80;;
9536;SDS011;4807;48.024;11.726;2022-10-23T01:12:43;4.03;;;1.03;;
9536;SDS011;4807;48.024;11.726;2022-10-23T01:16:03;1.53;;;0.83;;
9536;SDS011;4807;48.024;11.726;2022-10-23T01:19:19;2.83;;;1.10;;
9536;SDS011;4807;48.024;11.726;2022-10-23T01:22:55;2.77;;;1.90;;
9536;SDS011;4807;48.024;11.726;2022-10-23T01:26:32;2.20;;;1.50;;
9536;SDS011;4807;48.024;11.726;2022-10-23T01:30:01;1.67;;;1.57;;
9536;SDS011;4807;48.024;11.726;2022-10-23T01:33:19;2.20;;;1.83;;
9536;SDS011;4807;48.024;11.726;2022-10-23T01:36:34;1.87;;;1.20;;
9536;SDS011;4807;48.024;11.726;2022-10-23T01:39:51;1.67;;;1.03;;
9536;SDS011;4807;48.024;11.726;2022-10-23T01:43:05;1.30;;;1.00;;
9536;SDS011;4807;48.024;11.726;2022-10-23T01:46:23;1.17;;;1.07;;
9536;SDS011;4807;48.024;11.726;2022-10-23T01:49:35;1.53;;;1.13;;
9536;SDS011;4807;48.024;11.726;2022-10-23T01:52:48;1.13;;;1.00;;
9536;SDS011;4807;48.024;11.726;2022-10-23T01:55:57;1.83;;;0.77;;
9536;SDS011;4807;48.024;11.726;2022-10-23T01:59:10;0.80;;;0.60;;
9536;SDS011;4807;48.024;11.726;2022-10-23T02:02:25;1.73;;;0.57;;
9536;SDS011;4807;48.024;11.726;2022-10-23T02:05:39;2.60;;;0.80;;
9536;SDS011;4807;48.024;11.726;2022-10-23T02:08:50;2.93;;;0.93;;
9536;SDS011;4807;48.024;11.726;2022-10-23T02:12:00;6.47;;;1.67;;
9536;SDS011;4807;48.024;11.726;2022-10-23T02:15:17;3.97;;;1.73;;
9536;SDS011;4807;48.024;11.726;2022-10-23T02:18:37;10.37;;;3.50;;
9536;SDS011;4807;48.024;11.726;2022-10-23T02:21:55;4.80;;;3.10;;
9536;SDS011;4807;48.024;11.726;2022-10-23T02:25:15;1.80;;;1.40;;
9536;SDS011;4807;48.024;11.726;2022-10-23T02:28:29;1.37;;;0.70;;
9536;SDS011;4807;48.024;11.726;2022-10-23T02:31:47;1.17;;;0.60;;
9536;SDS011;4807;48.024;11.726;2022-10-23T02:34:58;4.60;;;2.60;;
9536;SDS011;4807;48.024;11.726;2022-10-23T02:41:39;1.40;;;0.97;;
9536;SDS011;4807;48.024;11.726;2022-10-23T02:45:20;2.53;;;0.63;;
9536;SDS011;4807;48.024;11.726;2022-10-23T02:48:40;3.83;;;1.13;;
9536;SDS011;4807;48.024;11.726;2022-10-23T02:52:01;2.83;;;2.13;;
9536;SDS011;4807;48.024;11.726;2022-10-23T02:55:21;3.73;;;3.10;;
9536;SDS011;4807;48.024;11.726;2022-10-23T02:58:42;0.73;;;0.73;;
9536;SDS011;4807;48.024;11.726;2022-10-23T03:02:05;3.70;;;0.90;;
9536;SDS011;4807;48.024;11.726;2022-10-23T03:05:25;1.20;;;0.70;;
9536;SDS011;4807;48.024;11.726;2022-10-23T03:08:41;0.70;;;0.60;;
9536;SDS011;4807;48.024;11.726;2022-10-23T03:11:51;1.53;;;1.00;;
9536;SDS011;4807;48.024;11.726;2022-10-23T03:14:59;3.03;;;1.90;;
9536;SDS011;4807;48.024;11.726;2022-10-23T03:18:08;1.67;;;1.37;;
9536;SDS011;4807;48.024;11.726;2022-10-23T03:21:17;1.53;;;1.37;;
9536;SDS011;4807;48.024;11.726;2022-10-23T03:24:31;2.03;;;0.77;;
9536;SDS011;4807;48.024;11.726;2022-10-23T03:27:40;0.93;;;0.70;;
9536;SDS011;4807;48.024;11.726;2022-10-23T03:30:53;0.67;;;0.67;;
9536;SDS011;4807;48.024;11.726;2022-10-23T03:34:02;1.23;;;1.13;;
9536;SDS011;4807;48.024;11.726;2022-10-23T03:37:16;1.97;;;1.20;;
9536;SDS011;4807;48.024;11.726;2022-10-23T03:40:26;0.80;;;0.80;;
9536;SDS011;4807;48.024;11.726;2022-10-23T03:43:34;0.60;;;0.60;;
9536;SDS011;4807;48.024;11.726;2022-10-23T03:46:44;0.70;;;0.70;;
9536;SDS011;4807;48.024;11.726;2022-10-23T03:49:53;2.00;;;1.00;;
9536;SDS011;4807;48.024;11.726;2022-10-23T03:53:01;2.23;;;1.00;;
9536;SDS011;4807;48.024;11.726;2022-10-23T03:56:14;1.57;;;1.30;;
9536;SDS011;4807;48.024;11.726;2022-10-23T03:59:23;1.73;;;1.10;;
9536;SDS011;4807;48.024;11.726;2022-10-23T04:02:32;0.53;;;0.53;;
9536;SDS011;4807;48.024;11.726;2022-10-23T04:05:42;0.67;;;0.67;;
9536;SDS011;4807;48.024;11.726;2022-10-23T04:08:51;1.10;;;0.60;;
9536;SDS011;4807;48.024;11.726;2022-10-23T04:12:02;1.83;;;0.50;;
9536;SDS011;4807;48.024;11.726;2022-10-23T04:15:11;0.50;;;0.50;;
9536;SDS011;4807;48.024;11.726;2022-10-23T04:18:23;4.43;;;0.80;;
9536;SDS011;4807;48.024;11.726;2022-10-23T04:21:31;2.53;;;0.40;;
9536;SDS011;4807;48.024;11.726;2022-10-23T04:24:40;0.60;;;0.60;;
9536;SDS011;4807;48.024;11.726;2022-10-23T04:27:57;1.50;;;0.40;;
9536;SDS011;4807;48.024;11.726;2022-10-23T04:31:11;0.50;;;0.50;;
9536;SDS011;4807;48.024;11.726;2022-10-23T04:34:21;0.40;;;0.40;;
9536;SDS011;4807;48.024;11.726;2022-10-23T04:37:31;0.77;;;0.53;;
9536;SDS011;4807;48.024;11.726;2022-10-23T04:40:40;0.53;;;0.50;;
9536;SDS011;4807;48.024;11.726;2022-10-23T04:43:50;0.30;;;0.30;;
9536;SDS011;4807;48.024;11.726;2022-10-23T04:46:59;1.50;;;0.53;;
9536;SDS011;4807;48.024;11.726;2022-10-23T04:50:08;0.50;;;0.50;;
9536;SDS011;4807;48.024;11.726;2022-10-23T04:53:36;0.40;;;0.40;;
9536;SDS011;4807;48.024;11.726;2022-10-23T04:57:01;1.60;;;0.40;;
9536;SDS011;4807;48.024;11.726;2022-10-23T05:00:27;2.83;;;0.33;;
9536;SDS011;4807;48.024;11.726;2022-10-23T05:03:36;0.50;;;0.50;;
9536;SDS011;4807;48.024;11.726;2022-10-23T05:06:45;0.93;;;0.93;;
9536;SDS011;4807;48.024;11.726;2022-10-23T05:10:13;0.70;;;0.70;;
9536;SDS011;4807;48.024;11.726;2022-10-23T05:14:00;0.80;;;0.80;;
9536;SDS011;4807;48.024;11.726;2022-10-23T05:17:11;1.27;;;0.50;;
9536;SDS011;4807;48.024;11.726;2022-10-23T05:20:28;1.10;;;0.90;;
9536;SDS011;4807;48.024;11.726;2022-10-23T05:23:42;0.70;;;0.70;;
9536;SDS011;4807;48.024;11.726;2022-10-23T05:26:53;2.13;;;1.07;;
9536;SDS011;4807;48.024;11.726;2022-10-23T05:30:02;1.00;;;0.63;;
9536;SDS011;4807;48.024;11.726;2022-10-23T05:33:16;2.43;;;0.60;;
9536;SDS011;4807;48.024;11.726;2022-10-23T05:36:29;0.57;;;0.57;;
9536;SDS011;4807;48.024;11.726;2022-10-23T05:39:38;2.83;;;0.70;;
9536;SDS011;4807;48.024;11.726;2022-10-23T05:42:51;0.87;;;0.60;;
9536;SDS011;4807;48.024;11.726;2022-10-23T05:46:11;0.67;;;0.40;;
9536;SDS011;4807;48.024;11.726;2022-10-23T05:49:21;0.70;;;0.70;;
9536;SDS011;4807;48.024;11.726;2022-10-23T05:53:01;1.90;;;0.90;;
9536;SDS011;4807;48.024;11.726;2022-10-23T05:56:22;0.50;;;0.50;;
9536;SDS011;4807;48.024;11.726;2022-10-23T05:59:44;1.20;;;1.10;;
9536;SDS011;4807;48.024;11.726;2022-10-23T06:03:21;1.30;;;1.20;;
9536;SDS011;4807;48.024;11.726;2022-10-23T06:06:32;1.20;;;1.20;;
9536;SDS011;4807;48.024;11.726;2022-10-23T06:09:42;1.20;;;1.20;;
9536;SDS011;4807;48.024;11.726;2022-10-23T06:12:51;1.30;;;0.90;;
9536;SDS011;4807;48.024;11.726;2022-10-23T06:16:06;0.80;;;0.80;;
9536;SDS011;4807;48.024;11.726;2022-10-23T06:19:17;2.00;;;0.87;;
9536;SDS011;4807;48.024;11.726;2022-10-23T06:22:31;0.77;;;0.57;;
9536;SDS011;4807;48.024;11.726;2022-10-23T06:25:55;0.30;;;0.30;;
9536;SDS011;4807;48.024;11.726;2022-10-23T06:29:11;1.50;;;0.80;;
9536;SDS011;4807;48.024;11.726;2022-10-23T06:32:21;0.60;;;0.60;;
9536;SDS011;4807;48.024;11.726;2022-10-23T06:35:45;0.30;;;0.30;;
9536;SDS011;4807;48.024;11.726;2022-10-23T06:38:56;0.60;;;0.60;;
9536;SDS011;4807;48.024;11.726;2022-10-23T06:42:30;0.90;;;0.80;;
9536;SDS011;4807;48.024;11.726;2022-10-23T06:45:59;1.17;;;0.60;;
9536;SDS011;4807;48.024;11.726;2022-10-23T06:49:28;1.37;;;0.80;;
9536;SDS011;4807;48.024;11.726;2022-10-23T06:52:37;0.70;;;0.70;;
9536;SDS011;4807;48.024;11.726;2022-10-23T06:55:58;0.70;;;0.70;;
9536;SDS011;4807;48.024;11.726;2022-10-23T06:59:09;0.40;;;0.40;;
9536;SDS011;4807;48.024;11.726;2022-10-23T07:02:18;0.87;;;0.87;;
9536;SDS011;4807;48.024;11.726;2022-10-23T07:05:27;0.83;;;0.63;;
9536;SDS011;4807;48.024;11.726;2022-10-23T07:08:36;0.70;;;0.70;;
9536;SDS011;4807;48.024;11.726;2022-10-23T07:12:13;3.53;;;0.50;;
9536;SDS011;4807;48.024;11.726;2022-10-23T07:15:28;0.47;;;0.47;;
9536;SDS011;4807;48.024;11.726;2022-10-23T07:18:37;0.67;;;0.67;;
9536;SDS011;4807;48.024;11.726;2022-10-23T07:22:06;0.87;;;0.43;;
9536;SDS011;4807;48.024;11.726;2022-10-23T07:25:27;0.30;;;0.30;;
9536;SDS011;4807;48.024;11.726;2022-10-23T07:28:41;2.03;;;0.30;;
9536;SDS011;4807;48.024;11.726;2022-10-23T07:31:58;0.37;;;0.30;;
9536;SDS011;4807;48.024;11.726;2022-10-23T07:35:39;8.37;;;6.80;;
9536;SDS011;4807;48.024;11.726;2022-10-23T07:38:51;3.80;;;1.00;;
9536;SDS011;4807;48.024;11.726;2022-10-23T07:41:59;0.93;;;0.90;;
9536;SDS011;4807;48.024;11.726;2022-10-23T07:45:10;12.90;;;7.47;;
9536;SDS011;4807;48.024;11.726;2022-10-23T07:48:22;15.47;;;9.67;;
9536;SDS011;4807;48.024;11.726;2022-10-23T07:51:39;4.03;;;1.90;;
9536;SDS011;4807;48.024;11.726;2022-10-23T07:54:49;1.50;;;0.70;;
9536;SDS011;4807;48.024;11.726;2022-10-23T07:57:59;0.40;;;0.40;;
9536;SDS011;4807;48.024;11.726;2022-10-23T08:01:22;0.70;;;0.70;;
9536;SDS011;4807;48.024;11.726;2022-10-23T08:04:38;1.73;;;1.23;;
9536;SDS011;4807;48.024;11.726;2022-10-23T08:08:02;2.30;;;1.67;;
9536;SDS011;4807;48.024;11.726;2022-10-23T08:11:12;2.50;;;1.93;;
9536;SDS011;4807;48.024;11.726;2022-10-23T08:14:29;3.03;;;0.60;;
9536;SDS011;4807;48.024;11.726;2022-10-23T08:17:39;0.50;;;0.40;;
9536;SDS011;4807;48.024;11.726;2022-10-23T08:20:57;0.40;;;0.40;;
9536;SDS011;4807;48.024;11.726;2022-10-23T08:24:10;0.20;;;0.20;;
9536;SDS011;4807;48.024;11.726;2022-10-23T08:27:21;1.60;;;0.50;;
9536;SDS011;4807;48.024;11.726;2022-10-23T08:30:31;0.60;;;0.60;;
9536;SDS011;4807;48.024;11.726;2022-10-23T08:33:41;0.50;;;0.50;;
9536;SDS011;4807;48.024;11.726;2022-10-23T08:36:50;3.23;;;0.40;;
9536;SDS011;4807;48.024;11.726;2022-10-23T08:39:58;1.07;;;0.50;;
9536;SDS011;4807;48.024;11.726;2022-10-23T08:43:43;0.40;;;0.40;;
9536;SDS011;4807;48.024;11.726;2022-10-23T08:47:07;0.70;;;0.43;;
9536;SDS011;4807;48.024;11.726;2022-10-23T08:50:42;0.60;;;0.50;;
9536;SDS011;4807;48.024;11.726;2022-10-23T08:53:58;0.73;;;0.50;;
9536;SDS011;4807;48.024;11.726;2022-10-23T08:57:25;1.17;;;0.53;;
9536;SDS011;4807;48.024;11.726;2022-10-23T09:00:46;0.50;;;0.50;;
9536;SDS011;4807;48.024;11.726;2022-10-23T09:03:57;0.70;;;0.50;;
9536;SDS011;4807;48.024;11.726;2022-10-23T09:07:11;1.30;;;0.50;;
9536;SDS011;4807;48.024;11.726;2022-10-23T09:10:48;1.10;;;0.40;;
9536;SDS011;4807;48.024;11.726;2022-10-23T09:14:21;0.93;;;0.83;;
9536;SDS011;4807;48.024;11.726;2022-10-23T09:17:45;7.83;;;0.80;;
9536;SDS011;4807;48.024;11.726;2022-10-23T09:21:00;0.87;;;0.30;;
9536;SDS011;4807;48.024;11.726;2022-10-23T09:24:13;1.13;;;0.50;;
9536;SDS011;4807;48.024;11.726;2022-10-23T09:27:23;0.30;;;0.30;;
9536;SDS011;4807;48.024;11.726;2022-10-23T09:30:34;0.30;;;0.30;;
9536;SDS011;4807;48.024;11.726;2022-10-23T09:33:54;0.43;;;0.30;;
9536;SDS011;4807;48.024;11.726;2022-10-23T09:37:16;7.43;;;0.67;;
9536;SDS011;4807;48.024;11.726;2022-10-23T09:40:34;1.70;;;0.30;;
9536;SDS011;4807;48.024;11.726;2022-10-23T09:43:57;2.00;;;0.30;;
9536;SDS011;4807;48.024;11.726;2022-10-23T09:47:25;3.83;;;0.30;;
9536;SDS011;4807;48.024;11.726;2022-10-23T09:50:34;1.67;;;0.30;;
9536;SDS011;4807;48.024;11.726;2022-10-23T09:53:46;0.63;;;0.30;;
9536;SDS011;4807;48.024;11.726;2022-10-23T09:57:03;1.17;;;0.20;;
9536;SDS011;4807;48.024;11.726;2022-10-23T10:00:26;0.97;;;0.20;;
9536;SDS011;4807;48.024;11.726;2022-10-23T10:03:35;0.30;;;0.20;;
9536;SDS011;4807;48.024;11.726;2022-10-23T10:06:55;0.83;;;0.13;;
9536;SDS011;4807;48.024;11.726;2022-10-23T10:10:06;0.10;;;0.10;;
9536;SDS011;4807;48.024;11.726;2022-10-23T10:13:29;2.37;;;0.30;;
9536;SDS011;4807;48.024;11.726;2022-10-23T10:16:53;0.10;;;0.10;;
9536;SDS011;4807;48.024;11.726;2022-10-23T10:20:16;0.20;;;0.20;;
9536;SDS011;4807;48.024;11.726;2022-10-23T10:23:55;0.20;;;0.20;;
9536;SDS011;4807;48.024;11.726;2022-10-23T10:27:18;0.20;;;0.20;;
9536;SDS011;4807;48.024;11.726;2022-10-23T10:30:48;0.53;;;0.30;;
9536;SDS011;4807;48.024;11.726;2022-10-23T10:34:15;0.50;;;0.17;;
9536;SDS011;4807;48.024;11.726;2022-10-23T10:37:49;1.43;;;0.30;;
9536;SDS011;4807;48.024;11.726;2022-10-23T10:45:12;1.33;;;0.20;;
9536;SDS011;4807;48.024;11.726;2022-10-23T10:48:40;0.70;;;0.37;;
9536;SDS011;4807;48.024;11.726;2022-10-23T10:52:17;0.20;;;0.20;;
9536;SDS011;4807;48.024;11.726;2022-10-23T10:55:36;0.83;;;0.30;;
9536;SDS011;4807;48.024;11.726;2022-10-23T10:58:49;1.43;;;0.47;;
9536;SDS011;4807;48.024;11.726;2022-10-23T11:02:04;0.90;;;0.37;;
9536;SDS011;4807;48.024;11.726;2022-10-23T11:05:35;1.07;;;0.37;;
9536;SDS011;4807;48.024;11.726;2022-10-23T11:08:49;0.33;;;0.33;;
9536;SDS011;4807;48.024;11.726;2022-10-23T11:12:03;0.20;;;0.20;;
9536;SDS011;4807;48.024;11.726;2022-10-23T11:15:13;2.00;;;0.40;;
9536;SDS011;4807;48.024;11.726;2022-10-23T11:18:26;0.57;;;0.53;;
9536;SDS011;4807;48.024;11.726;2022-10-23T11:21:41;1.53;;;0.50;;
9536;SDS011;4807;48.024;11.726;2022-10-23T11:25:17;1.20;;;0.40;;
9536;SDS011;4807;48.024;11.726;2022-10-23T11:29:04;0.83;;;0.60;;
9536;SDS011;4807;48.024;11.726;2022-10-23T11:36:54;0.20;;;0.20;;
9536;SDS011;4807;48.024;11.726;2022-10-23T11:40:14;0.83;;;0.33;;
9536;SDS011;4807;48.024;11.726;2022-10-23T11:43:30;2.43;;;0.30;;
9536;SDS011;4807;48.024;11.726;2022-10-23T11:47:00;0.20;;;0.20;;
9536;SDS011;4807;48.024;11.726;2022-10-23T11:50:13;0.30;;;0.30;;
9536;SDS011;4807;48.024;11.726;2022-10-23T11:53:38;0.23;;;0.23;;
9536;SDS011;4807;48.024;11.726;2022-10-23T11:56:49;0.47;;;0.30;;
9536;SDS011;4807;48.024;11.726;2022-10-23T12:00:02;0.47;;;0.30;;
9536;SDS011;4807;48.024;11.726;2022-10-23T12:03:30;0.27;;;0.27;;
9536;SDS011;4807;48.024;11.726;2022-10-23T12:06:49;0.40;;;0.30;;
9536;SDS011;4807;48.024;11.726;2022-10-23T12:10:03;0.77;;;0.30;;
9536;SDS011;4807;48.024;11.726;2022-10-23T12:13:28;0.27;;;0.27;;
9536;SDS011;4807;48.024;11.726;2022-10-23T12:16:50;1.47;;;0.20;;
9536;SDS011;4807;48.024;11.726;2022-10-23T12:20:03;2.77;;;0.40;;
9536;SDS011;4807;48.024;11.726;2022-10-23T12:23:36;1.03;;;0.30;;
9536;SDS011;4807;48.024;11.726;2022-10-23T12:27:02;0.70;;;0.30;;
9536;SDS011;4807;48.024;11.726;2022-10-23T12:30:28;0.20;;;0.20;;
9536;SDS011;4807;48.024;11.726;2022-10-23T12:33:48;1.03;;;0.30;;
9536;SDS011;4807;48.024;11.726;2022-10-23T12:37:11;0.60;;;0.40;;
9536;SDS011;4807;48.024;11.726;2022-10-23T12:40:43;0.33;;;0.20;;
9536;SDS011;4807;48.024;11.726;2022-10-23T12:43:58;0.30;;;0.30;;
9536;SDS011;4807;48.024;11.726;2022-10-23T12:47:12;0.27;;;0.27;;
9536;SDS011;4807;48.024;11.726;2022-10-23T12:50:25;0.40;;;0.40;;
9536;SDS011;4807;48.024;11.726;2022-10-23T12:53:36;1.70;;;1.60;;
9536;SDS011;4807;48.024;11.726;2022-10-23T12:56:45;1.50;;;1.40;;
9536;SDS011;4807;48.024;11.726;2022-10-23T12:59:56;1.17;;;1.07;;
9536;SDS011;4807;48.024;11.726;2022-10-23T13:03:10;1.00;;;1.00;;
9536;SDS011;4807;48.024;11.726;2022-10-23T13:06:18;0.87;;;0.80;;
9536;SDS011;4807;48.024;11.726;2022-10-23T13:09:28;1.03;;;0.80;;
9536;SDS011;4807;48.024;11.726;2022-10-23T13:12:52;0.47;;;0.40;;
9536;SDS011;4807;48.024;11.726;2022-10-23T13:16:14;0.30;;;0.30;;
9536;SDS011;4807;48.024;11.726;2022-10-23T13:19:25;1.27;;;0.30;;
9536;SDS011;4807;48.024;11.726;2022-10-23T13:22:34;0.63;;;0.33;;
9536;SDS011;4807;48.024;11.726;2022-10-23T13:25:51;2.23;;;0.30;;
9536;SDS011;4807;48.024;11.726;2022-10-23T13:29:03;1.27;;;0.20;;
9536;SDS011;4807;48.024;11.726;2022-10-23T13:32:32;1.40;;;0.30;;
9536;SDS011;4807;48.024;11.726;2022-10-23T13:35:43;4.40;;;0.40;;
9536;SDS011;4807;48.024;11.726;2022-10-23T13:39:12;0.30;;;0.30;;
9536;SDS011;4807;48.024;11.726;2022-10-23T13:42:22;0.67;;;0.30;;
9536;SDS011;4807;48.024;11.726;2022-10-23T13:45:33;1.17;;;0.60;;
9536;SDS011;4807;48.024;11.726;2022-10-23T13:48:43;2.20;;;0.40;;
9536;SDS011;4807;48.024;11.726;2022-10-23T13:51:53;0.30;;;0.30;;
9536;SDS011;4807;48.024;11.726;2022-10-23T13:55:02;0.87;;;0.40;;
9536;SDS011;4807;48.024;11.726;2022-10-23T13:58:23;1.93;;;0.40;;
9536;SDS011;4807;48.024;11.726;2022-10-23T14:01:32;0.80;;;0.30;;
9536;SDS011;4807;48.024;11.726;2022-10-23T14:04:43;0.50;;;0.50;;
9536;SDS011;4807;48.024;11.726;2022-10-23T14:07:52;2.00;;;0.40;;
9536;SDS011;4807;48.024;11.726;2022-10-23T14:11:01;0.40;;;0.20;;
9536;SDS011;4807;48.024;11.726;2022-10-23T14:14:10;1.60;;;0.30;;
9536;SDS011;4807;48.024;11.726;2022-10-23T14:17:21;0.87;;;0.40;;
9536;SDS011;4807;48.024;11.726;2022-10-23T14:20:31;0.50;;;0.37;;
9536;SDS011;4807;48.024;11.726;2022-10-23T14:23:39;0.30;;;0.30;;
9536;SDS011;4807;48.024;11.726;2022-10-23T14:26:48;0.30;;;0.30;;
9536;SDS011;4807;48.024;11.726;2022-10-23T14:29:56;0.40;;;0.40;;
9536;SDS011;4807;48.024;11.726;2022-10-23T14:33:05;1.73;;;0.40;;
9536;SDS011;4807;48.024;11.726;2022-10-23T14:36:15;0.30;;;0.30;;
9536;SDS011;4807;48.024;11.726;2022-10-23T14:39:29;1.37;;;0.60;;
9536;SDS011;4807;48.024;11.726;2022-10-23T14:42:37;0.30;;;0.30;;
9536;SDS011;4807;48.024;11.726;2022-10-23T14:45:46;0.73;;;0.50;;
9536;SDS011;4807;48.024;11.726;2022-10-23T14:48:54;0.80;;;0.40;;
9536;SDS011;4807;48.024;11.726;2022-10-23T14:52:09;0.40;;;0.40;;
9536;SDS011;4807;48.024;11.726;2022-10-23T14:55:18;1.43;;;0.57;;
9536;SDS011;4807;48.024;11.726;2022-10-23T14:58:26;2.10;;;0.47;;
9536;SDS011;4807;48.024;11.726;2022-10-23T15:01:36;1.13;;;0.40;;
9536;SDS011;4807;48.024;11.726;2022-10-23T15:04:52;0.73;;;0.27;;
9536;SDS011;4807;48.024;11.726;2022-10-23T15:08:02;0.97;;;0.47;;
9536;SDS011;4807;48.024;11.726;2022-10-23T15:11:11;0.93;;;0.40;;
9536;SDS011;4807;48.024;11.726;2022-10-23T15:14:22;0.37;;;0.37;;
9536;SDS011;4807;48.024;11.726;2022-10-23T15:17:30;1.00;;;0.50;;
9536;SDS011;4807;48.024;11.726;2022-10-23T15:20:39;3.60;;;0.50;;
9536;SDS011;4807;48.024;11.726;2022-10-23T15:23:49;0.90;;;0.60;;
9536;SDS011;4807;48.024;11.726;2022-10-23T15:26:59;1.23;;;0.67;;
9536;SDS011;4807;48.024;11.726;2022-10-23T15:30:08;0.83;;;0.70;;
9536;SDS011;4807;48.024;11.726;2022-10-23T15:33:18;0.90;;;0.90;;
9536;SDS011;4807;48.024;11.726;2022-10-23T15:36:27;1.43;;;0.80;;
9536;SDS011;4807;48.024;11.726;2022-10-23T15:39:38;0.80;;;0.80;;
9536;SDS011;4807;48.024;11.726;2022-10-23T15:42:48;0.80;;;0.80;;
9536;SDS011;4807;48.024;11.726;2022-10-23T15:45:58;1.67;;;0.70;;
9536;SDS011;4807;48.024;11.726;2022-10-23T15:49:07;1.07;;;0.77;;
9536;SDS011;4807;48.024;11.726;2022-10-23T15:52:16;2.10;;;0.90;;
9536;SDS011;4807;48.024;11.726;2022-10-23T15:55:25;1.53;;;0.73;;
9536;SDS011;4807;48.024;11.726;2022-10-23T15:58:34;0.70;;;0.70;;
9536;SDS011;4807;48.024;11.726;2022-10-23T16:01:42;3.80;;;0.90;;
9536;SDS011;4807;48.024;11.726;2022-10-23T16:04:51;1.20;;;1.10;;
9536;SDS011;4807;48.024;11.726;2022-10-23T16:07:59;2.03;;;1.10;;
9536;SDS011;4807;48.024;11.726;2022-10-23T16:11:13;10.00;;;3.93;;
9536;SDS011;4807;48.024;11.726;2022-10-23T16:14:24;3.23;;;1.37;;
9536;SDS011;4807;48.024;11.726;2022-10-23T16:17:32;1.03;;;0.97;;
9536;SDS011;4807;48.024;11.726;2022-10-23T16:20:41;3.73;;;1.83;;
9536;SDS011;4807;48.024;11.726;2022-10-23T16:23:49;3.33;;;2.13;;
9536;SDS011;4807;48.024;11.726;2022-10-23T16:27:01;3.87;;;2.67;;
9536;SDS011;4807;48.024;11.726;2022-10-23T16:30:09;3.70;;;3.20;;
9536;SDS011;4807;48.024;11.726;2022-10-23T16:33:19;6.97;;;2.60;;
9536;SDS011;4807;48.024;11.726;2022-10-23T16:36:27;2.93;;;2.70;;
9536;SDS011;4807;48.024;11.726;2022-10-23T16:39:57;2.40;;;2.20;;
9536;SDS011;4807;48.024;11.726;2022-10-23T16:43:26;2.57;;;1.83;;
9536;SDS011;4807;48.024;11.726;2022-10-23T16:46:45;2.03;;;1.53;;
9536;SDS011;4807;48.024;11.726;2022-10-23T16:49:53;1.70;;;1.60;;
9536;SDS011;4807;48.024;11.726;2022-10-23T16:53:02;4.10;;;1.60;;
9536;SDS011;4807;48.024;11.726;2022-10-23T16:56:11;2.67;;;2.47;;
9536;SDS011;4807;48.024;11.726;2022-10-23T16:59:23;3.23;;;2.40;;
9536;SDS011;4807;48.024;11.726;2022-10-23T17:02:31;3.30;;;1.60;;
9536;SDS011;4807;48.024;11.726;2022-10-23T17:05:40;3.77;;;1.60;;
9536;SDS011;4807;48.024;11.726;2022-10-23T17:08:49;1.77;;;1.60;;
9536;SDS011;4807;48.024;11.726;2022-10-23T17:11:57;7.80;;;2.47;;
9536;SDS011;4807;48.024;11.726;2022-10-23T17:15:08;2.90;;;1.50;;
9536;SDS011;4807;48.024;11.726;2022-10-23T17:18:17;1.77;;;1.47;;
9536;SDS011;4807;48.024;11.726;2022-10-23T17:21:28;5.37;;;4.40;;
9536;SDS011;4807;48.024;11.726;2022-10-23T17:24:39;7.07;;;5.20;;
9536;SDS011;4807;48.024;11.726;2022-10-23T17:27:54;4.73;;;3.63;;
9536;SDS011;4807;48.024;11.726;2022-10-23T17:31:04;4.30;;;2.77;;
9536;SDS011;4807;48.024;11.726;2022-10-23T17:34:22;3.13;;;1.57;;
9536;SDS011;4807;48.024;11.726;2022-10-23T17:37:30;3.07;;;1.00;;
9536;SDS011;4807;48.024;11.726;2022-10-23T17:40:39;3.37;;;1.53;;
9536;SDS011;4807;48.024;11.726;2022-10-23T17:43:48;3.80;;;2.07;;
9536;SDS011;4807;48.024;11.726;2022-10-23T17:47:04;3.70;;;3.00;;
9536;SDS011;4807;48.024;11.726;2022-10-23T17:50:12;4.47;;;3.40;;
9536;SDS011;4807;48.024;11.726;2022-10-23T17:53:21;3.67;;;3.10;;
9536;SDS011;4807;48.024;11.726;2022-10-23T17:56:30;3.63;;;2.90;;
9536;SDS011;4807;48.024;11.726;2022-10-23T17:59:40;4.87;;;2.90;;
9536;SDS011;4807;48.024;11.726;2022-10-23T18:02:51;3.20;;;2.33;;
9536;SDS011;4807;48.024;11.726;2022-10-23T18:06:04;4.93;;;3.23;;
9536;SDS011;4807;48.024;11.726;2022-10-23T18:09:14;7.63;;;3.33;;
9536;SDS011;4807;48.024;11.726;2022-10-23T18:12:23;7.60;;;3.47;;
9536;SDS011;4807;48.024;11.726;2022-10-23T18:15:32;11.73;;;5.50;;
9536;SDS011;4807;48.024;11.726;2022-10-23T18:18:43;12.83;;;6.13;;
9536;SDS011;4807;48.024;11.726;2022-10-23T18:21:54;5.40;;;3.43;;
9536;SDS011;4807;48.024;11.726;2022-10-23T18:25:03;4.77;;;2.93;;
9536;SDS011;4807;48.024;11.726;2022-10-23T18:28:13;4.43;;;2.93;;
9536;SDS011;4807;48.024;11.726;2022-10-23T18:31:22;3.93;;;2.80;;
9536;SDS011;4807;48.024;11.726;2022-10-23T18:34:37;6.67;;;2.87;;
9536;SDS011;4807;48.024;11.726;2022-10-23T18:37:45;3.23;;;2.63;;
9536;SDS011;4807;48.024;11.726;2022-10-23T18:40:54;3.67;;;2.90;;
9536;SDS011;4807;48.024;11.726;2022-10-23T18:44:03;4.50;;;2.77;;
9536;SDS011;4807;48.024;11.726;2022-10-23T18:47:11;2.80;;;2.50;;
9536;SDS011;4807;48.024;11.726;2022-10-23T18:50:21;2.27;;;2.07;;
9536;SDS011;4807;48.024;11.726;2022-10-23T18:53:32;3.27;;;2.50;;
9536;SDS011;4807;48.024;11.726;2022-10-23T18:56:40;7.73;;;3.20;;
9536;SDS011;4807;48.024;11.726;2022-10-23T18:59:49;5.47;;;3.30;;
9536;SDS011;4807;48.024;11.726;2022-10-23T19:02:58;4.80;;;2.73;;
9536;SDS011;4807;48.024;11.726;2022-10-23T19:06:08;6.13;;;2.90;;
9536;SDS011;4807;48.024;11.726;2022-10-23T19:09:17;5.47;;;2.10;;
9536;SDS011;4807;48.024;11.726;2022-10-23T19:12:26;3.20;;;2.20;;
9536;SDS011;4807;48.024;11.726;2022-10-23T19:15:35;3.20;;;2.00;;
9536;SDS011;4807;48.024;11.726;2022-10-23T19:18:45;3.53;;;1.53;;
9536;SDS011;4807;48.024;11.726;2022-10-23T19:22:02;4.20;;;1.40;;
9536;SDS011;4807;48.024;11.726;2022-10-23T19:25:12;3.83;;;1.23;;
9536;SDS011;4807;48.024;11.726;2022-10-23T19:28:25;3.93;;;1.33;;
9536;SDS011;4807;48.024;11.726;2022-10-23T19:31:33;1.80;;;1.50;;
9536;SDS011;4807;48.024;11.726;2022-10-23T19:34:41;4.87;;;1.57;;
9536;SDS011;4807;48.024;11.726;2022-10-23T19:37:52;1.70;;;1.60;;
9536;SDS011;4807;48.024;11.726;2022-10-23T19:41:00;2.03;;;1.47;;
9536;SDS011;4807;48.024;11.726;2022-10-23T19:44:09;2.47;;;1.40;;
9536;SDS011;4807;48.024;11.726;2022-10-23T19:47:19;3.27;;;1.47;;
9536;SDS011;4807;48.024;11.726;2022-10-23T19:50:27;6.00;;;1.10;;
9536;SDS011;4807;48.024;11.726;2022-10-23T19:53:37;2.07;;;1.00;;
9536;SDS011;4807;48.024;11.726;2022-10-23T19:56:46;1.67;;;0.90;;
9536;SDS011;4807;48.024;11.726;2022-10-23T19:59:55;1.83;;;1.03;;
9536;SDS011;4807;48.024;11.726;2022-10-23T20:03:03;4.23;;;1.00;;